createdAt,value
2018-08-13T00:00:35.489Z,1.47
2018-08-13T00:03:04.849Z,1.30
2018-08-13T00:05:33.972Z,1.50
2018-08-13T00:08:03.201Z,1.53
2018-08-13T00:10:33.573Z,1.40
2018-08-13T00:13:02.608Z,1.70
2018-08-13T00:15:31.985Z,1.60
2018-08-13T00:18:01.401Z,1.30
2018-08-13T00:20:36.229Z,1.63
2018-08-13T00:23:05.717Z,1.50
2018-08-13T00:25:35.353Z,1.37
2018-08-13T00:28:05.789Z,1.47
2018-08-13T00:30:43.088Z,1.60
2018-08-13T00:33:12.765Z,1.57
2018-08-13T00:35:42.195Z,1.43
2018-08-13T00:38:15.357Z,1.70
2018-08-13T00:40:46.822Z,1.63
2018-08-13T00:43:16.161Z,1.30
2018-08-13T00:45:45.493Z,1.60
2018-08-13T00:48:14.833Z,1.43
2018-08-13T00:50:49.334Z,1.50
2018-08-13T00:53:18.669Z,1.97
2018-08-13T00:55:48.090Z,1.60
2018-08-13T00:58:17.565Z,1.90
2018-08-13T01:00:48.068Z,2.00
2018-08-13T01:03:17.434Z,1.57
2018-08-13T01:05:46.901Z,1.30
2018-08-13T01:08:16.284Z,1.60
2018-08-13T01:10:45.739Z,1.67
2018-08-13T01:13:15.145Z,2.10
2018-08-13T01:15:44.490Z,1.90
2018-08-13T01:18:13.871Z,1.73
2018-08-13T01:20:44.321Z,1.50
2018-08-13T01:23:13.737Z,1.50
2018-08-13T01:25:43.204Z,1.90
2018-08-13T01:28:12.522Z,1.40
2018-08-13T01:30:43.005Z,1.80
2018-08-13T01:33:12.382Z,1.43
2018-08-13T01:35:41.729Z,1.77
2018-08-13T01:38:11.144Z,1.80
2018-08-13T01:40:42.549Z,1.83
2018-08-13T01:43:11.917Z,1.60
2018-08-13T01:45:41.302Z,1.40
2018-08-13T01:48:10.701Z,1.40
2018-08-13T01:50:47.697Z,1.80
2018-08-13T01:53:18.001Z,1.73
2018-08-13T01:55:47.356Z,1.57
2018-08-13T01:58:16.733Z,2.00
2018-08-13T02:00:46.233Z,1.60
2018-08-13T02:03:15.425Z,1.87
2018-08-13T02:05:44.593Z,1.83
2018-08-13T02:08:13.993Z,1.53
2018-08-13T02:11:15.385Z,1.33
2018-08-13T02:13:44.770Z,1.83
2018-08-13T02:16:14.185Z,2.13
2018-08-13T02:18:43.589Z,1.70
2018-08-13T02:21:16.689Z,1.80
2018-08-13T02:23:46.082Z,1.80
2018-08-13T02:26:15.729Z,2.00
2018-08-13T02:28:45.141Z,2.17
2018-08-13T02:31:22.314Z,1.80
2018-08-13T02:33:51.753Z,1.80
2018-08-13T02:36:21.070Z,1.90
2018-08-13T02:38:50.402Z,2.00
2018-08-13T02:41:24.537Z,1.80
2018-08-13T02:43:53.922Z,2.30
2018-08-13T02:46:23.338Z,1.60
2018-08-13T02:48:52.701Z,1.90
2018-08-13T02:51:30.290Z,2.13
2018-08-13T02:53:59.875Z,1.97
2018-08-13T02:56:29.363Z,1.87
2018-08-13T02:58:58.898Z,2.00
2018-08-13T03:01:28.841Z,1.47
2018-08-13T03:03:58.180Z,1.80
2018-08-13T03:06:27.547Z,1.90
2018-08-13T03:08:56.967Z,1.80
2018-08-13T03:11:27.389Z,2.00
2018-08-13T03:13:56.861Z,1.90
2018-08-13T03:16:26.124Z,2.23
2018-08-13T03:18:55.608Z,1.77
2018-08-13T03:21:24.993Z,1.83
2018-08-13T03:23:54.438Z,2.03
2018-08-13T03:26:23.821Z,1.80
2018-08-13T03:28:53.262Z,2.17
2018-08-13T03:31:30.722Z,1.77
2018-08-13T03:34:00.065Z,1.97
2018-08-13T03:36:29.417Z,1.97
2018-08-13T03:38:58.829Z,1.97
2018-08-13T03:41:29.238Z,1.70
2018-08-13T03:43:58.601Z,1.87
2018-08-13T03:46:28.022Z,2.30
2018-08-13T03:48:57.442Z,1.73
2018-08-13T03:51:27.818Z,1.70
2018-08-13T03:53:57.112Z,2.13
2018-08-13T03:56:26.485Z,2.30
2018-08-13T03:58:55.873Z,2.07
2018-08-13T04:01:51.031Z,2.10
2018-08-13T04:04:20.421Z,2.27
2018-08-13T04:06:49.743Z,2.20
2018-08-13T04:09:19.306Z,2.07
2018-08-13T04:11:49.749Z,2.47
2018-08-13T04:14:19.160Z,2.00
2018-08-13T04:16:55.805Z,2.27
2018-08-13T04:19:25.293Z,2.10
2018-08-13T04:21:59.525Z,1.90
2018-08-13T04:24:28.981Z,2.00
2018-08-13T04:26:58.885Z,2.10
2018-08-13T04:29:28.257Z,2.10
2018-08-13T04:31:57.749Z,1.90
2018-08-13T04:34:27.037Z,2.17
2018-08-13T04:36:56.478Z,1.90
2018-08-13T04:39:25.826Z,3.40
2018-08-13T04:41:57.317Z,2.73
2018-08-13T04:44:26.749Z,2.30
2018-08-13T04:46:56.190Z,2.10
2018-08-13T04:49:25.592Z,2.30
2018-08-13T04:51:57.186Z,2.30
2018-08-13T04:54:26.641Z,2.30
2018-08-13T04:56:56.006Z,2.43
2018-08-13T04:59:25.441Z,2.80
2018-08-13T05:01:54.856Z,2.40
2018-08-13T05:04:24.219Z,2.37
2018-08-13T05:06:53.620Z,2.77
2018-08-13T05:09:23.014Z,2.73
2018-08-13T05:12:04.306Z,2.60
2018-08-13T05:14:33.747Z,2.57
2018-08-13T05:17:03.034Z,3.00
2018-08-13T05:19:32.586Z,2.70
2018-08-13T05:22:13.061Z,2.87
2018-08-13T05:24:42.449Z,2.97
2018-08-13T05:27:11.903Z,2.57
2018-08-13T05:29:41.258Z,2.70
2018-08-13T05:32:15.669Z,2.97
2018-08-13T05:34:45.061Z,3.17
2018-08-13T05:37:14.557Z,2.97
2018-08-13T05:39:43.977Z,2.93
2018-08-13T05:42:15.393Z,2.60
2018-08-13T05:44:44.850Z,2.73
2018-08-13T05:47:14.416Z,2.43
2018-08-13T05:49:44.761Z,2.70
2018-08-13T05:52:14.230Z,2.93
2018-08-13T05:54:43.605Z,3.17
2018-08-13T05:57:13.089Z,2.80
2018-08-13T05:59:42.523Z,2.70
2018-08-13T06:02:16.614Z,2.73
2018-08-13T06:04:46.077Z,2.27
2018-08-13T06:07:16.043Z,2.80
2018-08-13T06:09:45.461Z,2.70
2018-08-13T06:12:14.974Z,2.47
2018-08-13T06:14:44.344Z,2.50
2018-08-13T06:17:13.654Z,2.30
2018-08-13T06:19:43.100Z,2.67
2018-08-13T06:22:12.489Z,3.67
2018-08-13T06:24:41.825Z,2.93
2018-08-13T06:27:11.275Z,2.57
2018-08-13T06:29:40.677Z,2.83
2018-08-13T06:32:12.194Z,2.60
2018-08-13T06:34:41.595Z,2.37
2018-08-13T06:37:10.990Z,2.33
2018-08-13T06:39:40.441Z,2.50
2018-08-13T06:42:13.094Z,2.47
2018-08-13T06:44:42.425Z,2.50
2018-08-13T06:47:11.918Z,2.47
2018-08-13T06:49:41.236Z,2.63
2018-08-13T06:52:10.966Z,2.40
2018-08-13T06:54:40.270Z,2.87
2018-08-13T06:57:09.374Z,2.30
2018-08-13T06:59:38.454Z,2.07
2018-08-13T07:02:14.652Z,2.27
2018-08-13T07:04:43.709Z,2.20
2018-08-13T07:07:13.622Z,2.67
2018-08-13T07:09:42.982Z,2.20
2018-08-13T07:12:13.009Z,2.43
2018-08-13T07:14:42.421Z,2.70
2018-08-13T07:17:11.604Z,2.50
2018-08-13T07:19:40.721Z,2.30
2018-08-13T07:22:10.955Z,2.63
2018-08-13T07:24:40.062Z,2.50
2018-08-13T07:27:09.189Z,3.05
2018-08-13T07:29:38.309Z,2.97
2018-08-13T07:32:16.058Z,2.23
2018-08-13T07:34:45.167Z,2.13
2018-08-13T07:37:14.370Z,1.90
2018-08-13T07:39:43.193Z,2.17
2018-08-13T07:43:12.361Z,2.62
2018-08-13T07:45:41.807Z,2.40
2018-08-13T07:48:10.861Z,2.15
2018-08-13T07:50:41.087Z,2.10
2018-08-13T07:53:10.189Z,2.15
2018-08-13T07:55:39.288Z,3.52
2018-08-13T07:58:08.649Z,1.90
2018-08-13T08:00:50.513Z,2.60
2018-08-13T08:03:19.674Z,1.87
2018-08-13T08:05:48.851Z,1.62
2018-08-13T08:08:17.977Z,2.00
2018-08-13T08:10:47.176Z,1.87
2018-08-13T08:13:16.325Z,1.87
2018-08-13T08:15:45.454Z,2.15
2018-08-13T08:18:14.560Z,1.95
2018-08-13T08:20:44.785Z,2.30
2018-08-13T08:23:13.912Z,2.95
2018-08-13T08:25:43.013Z,2.40
2018-08-13T08:28:12.310Z,3.87
2018-08-13T08:30:54.221Z,2.05
2018-08-13T08:33:23.664Z,2.58
2018-08-13T08:35:53.061Z,2.00
2018-08-13T08:38:22.448Z,2.15
2018-08-13T08:40:51.965Z,2.17
2018-08-13T08:43:21.341Z,1.72
2018-08-13T08:45:50.790Z,2.00
2018-08-13T08:48:20.197Z,1.77
2018-08-13T08:51:04.758Z,1.90
2018-08-13T08:53:34.228Z,1.70
2018-08-13T08:56:03.599Z,1.77
2018-08-13T08:58:33.045Z,1.50
2018-08-13T09:01:03.633Z,1.30
2018-08-13T09:03:33.078Z,1.90
2018-08-13T09:06:02.519Z,1.52
2018-08-13T09:08:31.865Z,1.30
2018-08-13T09:11:09.605Z,1.35
2018-08-13T09:13:38.969Z,1.35
2018-08-13T09:16:08.385Z,1.50
2018-08-13T09:18:55.174Z,1.30
2018-08-13T09:21:35.368Z,1.80
2018-08-13T09:24:21.558Z,1.50
2018-08-13T09:27:07.721Z,1.40
2018-08-13T09:29:53.870Z,1.32
2018-08-13T09:32:43.791Z,1.60
2018-08-13T09:35:28.305Z,1.70
2018-08-13T09:37:57.901Z,1.57
2018-08-13T09:40:33.552Z,1.30
2018-08-13T09:43:02.685Z,1.65
2018-08-13T09:45:31.812Z,1.30
2018-08-13T09:48:00.902Z,1.70
2018-08-13T09:50:42.748Z,1.67
2018-08-13T09:53:11.588Z,2.22
2018-08-13T09:55:40.723Z,1.72
2018-08-13T09:58:09.893Z,1.75
2018-08-13T10:00:54.975Z,1.72
2018-08-13T10:03:24.077Z,1.90
2018-08-13T10:05:53.181Z,2.10
2018-08-13T10:08:22.101Z,1.62
2018-08-13T10:10:55.415Z,1.87
2018-08-13T10:13:24.782Z,1.85
2018-08-13T10:15:54.151Z,1.82
2018-08-13T10:18:23.477Z,2.00
2018-08-13T10:21:01.626Z,2.05
2018-08-13T10:23:31.012Z,1.77
2018-08-13T10:26:00.462Z,1.60
2018-08-13T10:28:29.880Z,2.00
2018-08-13T10:30:59.313Z,1.70
2018-08-13T10:33:28.706Z,1.57
2018-08-13T10:35:58.009Z,1.95
2018-08-13T10:38:27.461Z,2.00
2018-08-13T10:40:58.837Z,1.82
2018-08-13T10:43:28.347Z,1.60
2018-08-13T10:45:57.690Z,1.50
2018-08-13T10:48:27.133Z,1.70
2018-08-13T10:51:18.069Z,1.92
2018-08-13T10:53:47.536Z,1.70
2018-08-13T10:56:17.016Z,2.30
2018-08-13T10:58:46.516Z,1.57
2018-08-13T11:01:20.309Z,1.25
2018-08-13T11:03:49.740Z,1.67
2018-08-13T11:06:19.816Z,1.95
2018-08-13T11:08:49.205Z,1.90
2018-08-13T11:11:20.274Z,2.10
2018-08-13T11:13:50.241Z,1.95
2018-08-13T11:16:19.741Z,1.87
2018-08-13T11:18:49.089Z,1.98
2018-08-13T11:21:26.085Z,2.30
2018-08-13T11:23:55.453Z,1.75
2018-08-13T11:26:24.845Z,1.90
2018-08-13T11:28:54.306Z,2.20
2018-08-13T11:31:35.193Z,2.30
2018-08-13T11:34:04.565Z,2.30
2018-08-13T11:36:33.980Z,1.90
2018-08-13T11:39:03.469Z,1.90
2018-08-13T11:41:33.914Z,2.40
2018-08-13T11:44:03.426Z,2.20
2018-08-13T11:46:32.889Z,2.33
2018-08-13T11:49:02.521Z,2.40
2018-08-13T11:51:36.060Z,2.10
2018-08-13T11:54:05.242Z,2.40
2018-08-13T11:56:34.417Z,2.00
2018-08-13T11:59:03.528Z,2.00
2018-08-13T12:01:32.840Z,3.13
2018-08-13T12:04:02.334Z,1.90
2018-08-13T12:06:31.711Z,2.33
2018-08-13T12:09:01.110Z,2.33
2018-08-13T12:11:36.177Z,2.23
2018-08-13T12:14:05.692Z,2.00
2018-08-13T12:16:35.181Z,2.60
2018-08-13T12:19:04.497Z,2.33
2018-08-13T12:21:38.668Z,2.27
2018-08-13T12:24:07.940Z,2.23
2018-08-13T12:26:37.064Z,2.40
2018-08-13T12:29:06.597Z,2.40
2018-08-13T12:31:35.794Z,2.30
2018-08-13T12:34:04.881Z,2.10
2018-08-13T12:36:33.981Z,2.57
2018-08-13T12:39:03.089Z,2.23
2018-08-13T12:41:39.545Z,2.17
2018-08-13T12:44:08.709Z,2.33
2018-08-13T12:46:38.017Z,2.40
2018-08-13T12:49:07.465Z,2.00
2018-08-13T12:51:38.889Z,2.10
2018-08-13T12:54:08.209Z,2.33
2018-08-13T12:56:39.693Z,2.40
2018-08-13T12:59:09.225Z,2.23
2018-08-13T13:01:38.682Z,2.73
2018-08-13T13:04:08.253Z,2.40
2018-08-13T13:06:37.610Z,2.20
2018-08-13T13:09:10.346Z,1.95
2018-08-13T13:11:40.737Z,2.20
2018-08-13T13:14:09.963Z,2.47
2018-08-13T13:16:39.125Z,2.45
2018-08-13T13:19:08.602Z,2.20
2018-08-13T13:21:43.657Z,1.80
2018-08-13T13:24:12.993Z,2.22
2018-08-13T13:26:42.397Z,2.35
2018-08-13T13:29:11.798Z,2.10
2018-08-13T13:31:45.185Z,2.33
2018-08-13T13:34:14.554Z,2.30
2018-08-13T13:36:43.947Z,2.20
2018-08-13T13:39:13.452Z,2.00
2018-08-13T13:41:43.822Z,2.00
2018-08-13T13:44:13.149Z,1.77
2018-08-13T13:46:42.553Z,1.98
2018-08-13T13:49:11.946Z,2.35
2018-08-13T13:51:41.443Z,1.98
2018-08-13T13:54:10.932Z,1.77
2018-08-13T13:56:40.369Z,1.90
2018-08-13T13:59:09.667Z,1.83
2018-08-13T14:01:52.812Z,1.97
2018-08-13T14:04:22.188Z,2.10
2018-08-13T14:06:51.690Z,1.93
2018-08-13T14:09:21.851Z,1.70
2018-08-13T14:14:21.528Z,1.60
2018-08-13T14:16:50.663Z,1.72
2018-08-13T14:19:19.829Z,1.30
2018-08-13T14:21:50.245Z,1.75
2018-08-13T14:24:19.724Z,1.90
2018-08-13T14:26:49.038Z,1.75
2018-08-13T14:29:18.580Z,1.47
2018-08-13T14:31:50.003Z,1.70
2018-08-13T14:34:19.770Z,1.70
2018-08-13T14:36:49.157Z,1.82
2018-08-13T14:39:19.179Z,1.70
2018-08-13T14:41:48.587Z,1.90
2018-08-13T14:44:18.050Z,1.72
2018-08-13T14:46:47.441Z,1.50
2018-08-13T14:49:16.951Z,1.32
2018-08-13T14:51:48.357Z,1.60
2018-08-13T14:54:17.785Z,1.57
2018-08-13T14:56:47.300Z,1.52
2018-08-13T14:59:16.813Z,1.67
2018-08-13T15:01:46.341Z,1.42
2018-08-13T15:04:15.777Z,1.52
2018-08-13T15:06:45.217Z,1.73
2018-08-13T15:09:14.956Z,1.57
2018-08-13T15:11:45.421Z,1.67
2018-08-13T15:14:15.042Z,1.67
2018-08-13T15:16:44.437Z,1.73
2018-08-13T15:19:14.011Z,1.80
2018-08-13T15:21:44.340Z,1.60
2018-08-13T15:24:13.705Z,1.57
2018-08-13T15:26:43.203Z,1.63
2018-08-13T15:29:12.593Z,2.03
2018-08-13T15:31:41.974Z,1.97
2018-08-13T15:34:11.329Z,1.70
2018-08-13T15:36:40.665Z,2.00
2018-08-13T15:39:11.593Z,1.77
2018-08-13T15:41:41.085Z,1.60
2018-08-13T15:44:10.417Z,1.70
2018-08-13T15:46:39.781Z,1.70
2018-08-13T15:49:09.170Z,1.90
2018-08-13T15:51:38.538Z,1.67
2018-08-13T15:54:07.969Z,1.50
2018-08-13T15:56:37.317Z,1.80
2018-08-13T15:59:06.879Z,1.75
2018-08-13T16:01:36.282Z,2.00
2018-08-13T16:04:05.785Z,1.97
2018-08-13T16:06:35.218Z,1.90
2018-08-13T16:09:05.989Z,1.80
2018-08-13T16:11:35.144Z,1.72
2018-08-13T16:14:04.301Z,1.80
2018-08-13T16:16:33.474Z,2.00
2018-08-13T16:19:02.569Z,1.67
2018-08-13T16:21:31.688Z,1.80
2018-08-13T16:24:00.905Z,1.80
2018-08-13T16:26:29.966Z,1.97
2018-08-13T16:28:59.201Z,1.87
2018-08-13T16:31:28.677Z,1.73
2018-08-13T16:33:58.124Z,1.70
2018-08-13T16:36:27.526Z,1.90
2018-08-13T16:38:56.981Z,1.90
2018-08-13T16:41:26.461Z,1.50
2018-08-13T16:43:55.817Z,1.90
2018-08-13T16:46:25.993Z,1.77
2018-08-13T16:48:55.542Z,1.72
2018-08-13T16:51:30.890Z,1.70
2018-08-13T16:54:00.425Z,1.80
2018-08-13T16:56:29.841Z,1.60
2018-08-13T16:58:59.190Z,1.92
2018-08-13T17:01:30.654Z,2.02
2018-08-13T17:04:00.248Z,1.60
2018-08-13T17:06:29.670Z,2.00
2018-08-13T17:08:59.058Z,1.95
2018-08-13T17:11:34.689Z,1.70
2018-08-13T17:14:06.954Z,1.80
2018-08-13T17:16:36.652Z,1.50
2018-08-13T17:19:06.091Z,1.77
2018-08-13T17:21:35.581Z,2.02
2018-08-13T17:24:05.402Z,2.00
2018-08-13T17:26:34.805Z,1.87
2018-08-13T17:29:04.438Z,1.92
2018-08-13T17:31:34.940Z,2.12
2018-08-13T17:34:04.477Z,2.00
2018-08-13T17:36:33.883Z,2.00
2018-08-13T17:41:40.777Z,1.93
2018-08-13T17:44:10.229Z,1.95
2018-08-13T17:46:47.491Z,2.07
2018-08-13T17:49:17.690Z,1.93
2018-08-13T17:51:48.114Z,1.70
2018-08-13T17:54:17.565Z,1.90
2018-08-13T17:56:47.005Z,1.87
2018-08-13T17:59:16.449Z,1.80
2018-08-13T18:01:49.660Z,1.73
2018-08-13T18:04:18.977Z,1.97
2018-08-13T18:06:48.345Z,2.10
2018-08-13T18:09:17.861Z,1.97
2018-08-13T18:11:51.827Z,1.83
2018-08-13T18:14:21.301Z,2.30
2018-08-13T18:16:50.675Z,2.17
2018-08-13T18:19:20.178Z,2.63
2018-08-13T18:21:53.758Z,3.33
2018-08-13T18:24:23.115Z,3.90
2018-08-13T18:26:52.590Z,3.90
2018-08-13T18:29:22.123Z,4.00
2018-08-13T18:31:59.036Z,4.20
2018-08-13T18:34:28.515Z,4.17
2018-08-13T18:36:58.110Z,4.20
2018-08-13T18:39:27.450Z,4.37
2018-08-13T18:42:00.501Z,5.33
2018-08-13T18:44:29.946Z,5.37
2018-08-13T18:46:59.401Z,5.00
2018-08-13T18:49:28.830Z,4.23
2018-08-13T18:51:58.253Z,5.53
2018-08-13T18:54:27.661Z,3.40
2018-08-13T18:56:57.057Z,2.93
2018-08-13T18:59:26.517Z,2.00
2018-08-13T19:01:56.865Z,2.40
2018-08-13T19:04:26.285Z,2.00
2018-08-13T19:06:55.712Z,1.87
2018-08-13T19:09:25.061Z,1.80
2018-08-13T19:12:03.497Z,2.37
2018-08-13T19:14:32.969Z,2.03
2018-08-13T19:17:02.375Z,2.30
2018-08-13T19:19:31.761Z,2.50
2018-08-13T19:22:08.420Z,2.27
2018-08-13T19:24:37.853Z,1.90
2018-08-13T19:27:07.236Z,1.83
2018-08-13T19:29:36.594Z,2.20
2018-08-13T19:32:50.627Z,1.77
2018-08-13T19:35:20.010Z,1.90
2018-08-13T19:37:49.615Z,1.67
2018-08-13T19:40:29.717Z,1.77
2018-08-13T19:42:59.085Z,1.50
2018-08-13T19:45:28.596Z,1.90
2018-08-13T19:47:57.950Z,1.93
2018-08-13T19:50:42.221Z,1.90
2018-08-13T19:53:11.706Z,1.80
2018-08-13T19:55:41.179Z,2.10
2018-08-13T19:58:10.533Z,1.87
2018-08-13T20:00:53.948Z,2.20
2018-08-13T20:03:23.397Z,2.33
2018-08-13T20:05:52.833Z,2.23
2018-08-13T20:08:22.320Z,2.50
2018-08-13T20:11:03.062Z,2.53
2018-08-13T20:13:32.485Z,2.10
2018-08-13T20:16:01.919Z,2.63
2018-08-13T20:18:31.360Z,2.30
2018-08-13T20:21:00.768Z,2.37
2018-08-13T20:23:30.194Z,2.40
2018-08-13T20:25:59.562Z,2.07
2018-08-13T20:28:36.600Z,2.07
2018-08-13T20:31:06.712Z,1.93
2018-08-13T20:33:35.816Z,2.00
2018-08-13T20:36:05.045Z,2.23
2018-08-13T20:38:34.149Z,1.80
2018-08-13T20:41:06.908Z,1.77
2018-08-13T20:43:36.018Z,1.67
2018-08-13T20:46:05.501Z,2.83
2018-08-13T20:48:34.877Z,2.10
2018-08-13T20:51:11.576Z,1.60
2018-08-13T20:53:40.648Z,1.80
2018-08-13T20:56:09.764Z,1.87
2018-08-13T20:58:38.961Z,2.00
2018-08-13T21:01:17.488Z,2.07
2018-08-13T21:03:46.954Z,1.97
2018-08-13T21:06:16.301Z,1.47
2018-08-13T21:08:45.778Z,2.10
2018-08-13T21:11:19.797Z,2.20
2018-08-13T21:13:49.477Z,2.50
2018-08-13T21:16:19.146Z,3.30
2018-08-13T21:18:48.646Z,3.07
2018-08-13T21:21:32.485Z,2.90
2018-08-13T21:24:01.942Z,2.40
2018-08-13T21:26:31.324Z,2.67
2018-08-13T21:29:00.701Z,2.50
2018-08-13T21:31:44.237Z,2.47
2018-08-13T21:34:13.629Z,2.40
2018-08-13T21:36:43.018Z,2.37
2018-08-13T21:39:12.833Z,2.33
2018-08-13T21:41:42.477Z,2.33
2018-08-13T21:44:11.846Z,2.40
2018-08-13T21:46:41.213Z,3.00
2018-08-13T21:49:10.629Z,2.57
2018-08-13T21:51:47.414Z,2.23
2018-08-13T21:54:16.803Z,2.60
2018-08-13T21:56:46.097Z,2.80
2018-08-13T21:59:15.566Z,2.83
2018-08-13T22:02:01.903Z,2.60
2018-08-13T22:04:31.060Z,2.90
2018-08-13T22:07:00.120Z,2.40
2018-08-13T22:09:29.204Z,2.80
2018-08-13T22:12:00.357Z,3.17
2018-08-13T22:14:29.440Z,2.77
2018-08-13T22:16:58.537Z,2.87
2018-08-13T22:19:27.665Z,2.90
2018-08-13T22:21:58.961Z,2.30
2018-08-13T22:24:45.437Z,2.50
2018-08-13T22:27:15.131Z,2.50
2018-08-13T22:29:44.524Z,2.80
2018-08-13T22:32:32.430Z,2.70
2018-08-13T22:35:01.770Z,2.20
2018-08-13T22:37:31.197Z,2.27
2018-08-13T22:40:00.497Z,2.50
2018-08-13T22:42:31.923Z,2.87
2018-08-13T22:45:02.043Z,3.03
2018-08-13T22:47:31.541Z,3.47
2018-08-13T22:50:00.717Z,3.13
2018-08-13T22:52:29.878Z,3.07
2018-08-13T22:54:58.997Z,2.80
2018-08-13T22:57:28.097Z,2.47
2018-08-13T22:59:57.197Z,2.80
2018-08-13T23:02:30.273Z,3.00
2018-08-13T23:04:59.439Z,3.00
2018-08-13T23:07:28.537Z,2.90
2018-08-13T23:09:57.654Z,3.67
2018-08-13T23:12:28.820Z,3.33
2018-08-13T23:14:57.936Z,3.30
2018-08-13T23:17:27.087Z,2.67
2018-08-13T23:19:56.234Z,2.60
2018-08-13T23:23:03.401Z,2.77
2018-08-13T23:25:34.442Z,3.60
2018-08-13T23:28:05.318Z,3.70
2018-08-13T23:30:49.809Z,3.50
2018-08-13T23:33:19.254Z,3.47
2018-08-13T23:35:48.779Z,3.30
2018-08-13T23:38:18.113Z,4.23
2018-08-13T23:41:07.032Z,3.60
2018-08-13T23:43:36.495Z,3.67
2018-08-13T23:46:06.093Z,3.23
2018-08-13T23:48:35.481Z,3.00
2018-08-13T23:51:09.217Z,2.87
2018-08-13T23:53:38.617Z,3.00
2018-08-13T23:56:08.076Z,2.97
2018-08-13T23:58:37.463Z,3.00
